Time;durP1;ratioP1;P1;durP2;ratioP2;P2;SDS_P1;SDS_P2;PMS_P1;PMS_P2;Temp;Humidity;BMP_temperature;BMP_pressure;BME280_temperature;BME280_humidity;BME280_pressure;Samples;Min_cycle;Max_cycle;Signal;HPM_P1;HPM_P2
2022/02/26 00:00:55;;;;;;;1.55;0.40;;;;;;;;;;2068140;28;20484;-66
2022/02/26 00:02:14;;;;;;;0.98;0.30;;;;;;;;;;2068034;28;20469;-66
2022/02/26 00:03:33;;;;;;;2.45;0.70;;;;;;;;;;2067153;28;20512;-66
2022/02/26 00:04:52;;;;;;;5.80;0.85;;;;;;;;;;2066682;28;20062;-66
2022/02/26 00:06:11;;;;;;;2.03;0.60;;;;;;;;;;2067655;28;20026;-65
2022/02/26 00:07:30;;;;;;;7.78;0.80;;;;;;;;;;2068227;28;20031;-66
2022/02/26 00:08:48;;;;;;;3.17;0.70;;;;;;;;;;2066595;28;20049;-67
2022/02/26 00:10:07;;;;;;;1.67;0.77;;;;;;;;;;2067434;28;20026;-66
2022/02/26 00:11:26;;;;;;;5.05;0.77;;;;;;;;;;2068496;28;20053;-66
2022/02/26 00:12:45;;;;;;;1.10;0.38;;;;;;;;;;2067338;28;20023;-66
2022/02/26 00:14:04;;;;;;;0.98;0.70;;;;;;;;;;2067145;28;20034;-67
2022/02/26 00:15:23;;;;;;;2.25;0.73;;;;;;;;;;2067540;28;20477;-66
2022/02/26 00:16:42;;;;;;;1.15;0.50;;;;;;;;;;2068466;28;20109;-67
2022/02/26 00:18:01;;;;;;;1.63;0.60;;;;;;;;;;2067305;28;20026;-66
2022/02/26 00:19:20;;;;;;;1.48;0.45;;;;;;;;;;2066279;28;20030;-65
2022/02/26 00:20:39;;;;;;;3.42;0.80;;;;;;;;;;2068343;28;20463;-66
2022/02/26 00:21:58;;;;;;;3.08;0.50;;;;;;;;;;2068153;28;20041;-67
2022/02/26 00:23:18;;;;;;;1.50;0.50;;;;;;;;;;2068199;28;20022;-66
2022/02/26 00:24:37;;;;;;;2.97;0.60;;;;;;;;;;2066874;28;20030;-66
2022/02/26 00:25:56;;;;;;;4.57;0.52;;;;;;;;;;2068065;28;20030;-66
2022/02/26 00:27:15;;;;;;;1.98;0.50;;;;;;;;;;2067396;28;20125;-66
2022/02/26 00:28:34;;;;;;;2.20;0.50;;;;;;;;;;2068213;28;20054;-66
2022/02/26 00:29:52;;;;;;;1.58;0.60;;;;;;;;;;2067428;28;20042;-66
2022/02/26 00:31:11;;;;;;;1.00;0.57;;;;;;;;;;2067862;28;20038;-66
2022/02/26 00:32:30;;;;;;;1.00;0.40;;;;;;;;;;2069463;28;20061;-65
2022/02/26 00:33:49;;;;;;;3.63;0.47;;;;;;;;;;2083920;28;20504;-65
2022/02/26 00:35:08;;;;;;;8.02;0.65;;;;;;;;;;2065199;28;20121;-66
2022/02/26 00:36:28;;;;;;;1.58;0.50;;;;;;;;;;2067649;28;20380;-66
2022/02/26 00:37:46;;;;;;;3.08;0.60;;;;;;;;;;2067741;28;20026;-66
2022/02/26 00:39:06;;;;;;;2.60;0.50;;;;;;;;;;2066177;28;20019;-66
2022/02/26 00:40:24;;;;;;;4.07;0.93;;;;;;;;;;2067438;28;20027;-65
2022/02/26 00:41:43;;;;;;;2.13;0.60;;;;;;;;;;2066851;28;20618;-66
2022/02/26 00:43:02;;;;;;;2.03;0.40;;;;;;;;;;2063474;28;20125;-64
2022/02/26 00:44:21;;;;;;;1.35;0.30;;;;;;;;;;2067032;28;20042;-66
2022/02/26 00:45:40;;;;;;;2.72;0.43;;;;;;;;;;2067432;28;20026;-66
2022/02/26 00:47:00;;;;;;;1.17;0.55;;;;;;;;;;2068937;28;20113;-66
2022/02/26 00:49:46;;;;;;;3.83;0.73;;;;;;;;;;2067749;28;20110;-67
2022/02/26 00:49:58;;;;;;;2.28;0.50;;;;;;;;;;2067841;28;20417;-66
2022/02/26 00:51:17;;;;;;;1.33;0.50;;;;;;;;;;2067154;28;20493;-66
2022/02/26 00:52:36;;;;;;;1.67;0.50;;;;;;;;;;2067230;28;20034;-66
2022/02/26 00:53:55;;;;;;;4.45;0.47;;;;;;;;;;2066451;28;20043;-66
2022/02/26 00:55:15;;;;;;;1.90;0.80;;;;;;;;;;2068947;28;20027;-67
2022/02/26 00:56:34;;;;;;;2.78;0.70;;;;;;;;;;2068398;28;20035;-66
2022/02/26 00:57:53;;;;;;;1.23;0.35;;;;;;;;;;2066477;28;20034;-67
2022/02/26 00:59:12;;;;;;;4.43;0.65;;;;;;;;;;2067192;28;20496;-67
2022/02/26 01:00:31;;;;;;;3.10;0.43;;;;;;;;;;2067068;28;20033;-67
2022/02/26 01:01:49;;;;;;;2.15;0.50;;;;;;;;;;2067671;28;20026;-66
2022/02/26 01:03:08;;;;;;;1.00;0.68;;;;;;;;;;2067136;28;20030;-67
2022/02/26 01:04:27;;;;;;;3.33;0.75;;;;;;;;;;2067362;28;20030;-66
2022/02/26 01:05:46;;;;;;;4.47;0.60;;;;;;;;;;2067709;28;20033;-67
2022/02/26 01:07:06;;;;;;;2.72;0.52;;;;;;;;;;2062767;28;20614;-67
2022/02/26 01:08:24;;;;;;;1.73;0.50;;;;;;;;;;2067241;28;20200;-67
2022/02/26 01:09:43;;;;;;;1.13;0.50;;;;;;;;;;2066200;28;20038;-67
2022/02/26 01:11:02;;;;;;;2.83;0.40;;;;;;;;;;2067231;28;20157;-67
2022/02/26 01:12:21;;;;;;;4.63;0.50;;;;;;;;;;2067419;28;20026;-66
2022/02/26 01:13:40;;;;;;;2.35;0.60;;;;;;;;;;2067872;28;20041;-67
2022/02/26 01:15:02;;;;;;;1.42;0.75;;;;;;;;;;2067613;28;20026;-67
2022/02/26 01:16:21;;;;;;;2.72;0.50;;;;;;;;;;2066539;28;20034;-67
2022/02/26 01:17:40;;;;;;;2.92;0.55;;;;;;;;;;2067080;28;20026;-67
2022/02/26 01:18:58;;;;;;;2.80;0.50;;;;;;;;;;2066134;28;20018;-67
2022/02/26 01:20:17;;;;;;;2.45;0.52;;;;;;;;;;2066412;28;20027;-67
2022/02/26 01:21:36;;;;;;;3.08;0.60;;;;;;;;;;2066184;28;20453;-67
2022/02/26 01:22:56;;;;;;;2.05;0.50;;;;;;;;;;2067129;28;20053;-66
2022/02/26 01:24:15;;;;;;;2.03;0.60;;;;;;;;;;2067934;28;20026;-67
2022/02/26 01:25:34;;;;;;;1.00;0.60;;;;;;;;;;2068095;28;20112;-67
2022/02/26 01:26:53;;;;;;;1.90;0.70;;;;;;;;;;2069327;28;20439;-67
2022/02/26 01:28:11;;;;;;;1.92;0.77;;;;;;;;;;2068698;28;20038;-67
2022/02/26 01:29:30;;;;;;;3.33;0.77;;;;;;;;;;2066654;28;20034;-67
2022/02/26 01:30:49;;;;;;;2.72;0.88;;;;;;;;;;2065841;28;20504;-67
2022/02/26 01:32:09;;;;;;;2.60;0.68;;;;;;;;;;2067053;28;20061;-67
2022/02/26 01:33:27;;;;;;;3.53;0.80;;;;;;;;;;2066805;28;20046;-67
2022/02/26 01:34:46;;;;;;;1.02;0.43;;;;;;;;;;2067228;28;20117;-67
2022/02/26 01:36:05;;;;;;;2.08;0.65;;;;;;;;;;2070905;28;20034;-66
2022/02/26 01:37:24;;;;;;;3.45;0.70;;;;;;;;;;2066439;28;20046;-66
2022/02/26 01:38:43;;;;;;;4.20;0.70;;;;;;;;;;2068248;28;20046;-67
2022/02/26 01:40:02;;;;;;;0.95;0.60;;;;;;;;;;2066958;28;20034;-67
2022/02/26 01:41:21;;;;;;;3.20;0.63;;;;;;;;;;2067395;28;20062;-66
2022/02/26 01:42:41;;;;;;;3.53;0.70;;;;;;;;;;2067771;28;20033;-66
2022/02/26 01:44:00;;;;;;;0.70;0.35;;;;;;;;;;2065820;28;20117;-67
2022/02/26 01:45:19;;;;;;;2.00;0.60;;;;;;;;;;2066257;28;20113;-67
2022/02/26 01:46:38;;;;;;;3.83;0.60;;;;;;;;;;2067547;28;20035;-67
2022/02/26 01:47:57;;;;;;;1.08;0.40;;;;;;;;;;2067409;28;20381;-66
2022/02/26 01:49:16;;;;;;;2.33;0.60;;;;;;;;;;2066575;28;20485;-65
2022/02/26 01:50:35;;;;;;;1.17;0.25;;;;;;;;;;2066163;28;20034;-66
2022/02/26 01:51:54;;;;;;;2.38;0.80;;;;;;;;;;2066416;28;20023;-66
2022/02/26 01:53:14;;;;;;;4.93;0.52;;;;;;;;;;2066771;28;20408;-66
2022/02/26 01:54:33;;;;;;;3.50;0.50;;;;;;;;;;2071242;28;20060;-66
2022/02/26 01:55:52;;;;;;;1.73;0.57;;;;;;;;;;2068283;28;20034;-67
2022/02/26 01:57:11;;;;;;;5.65;1.27;;;;;;;;;;2066796;28;20018;-67
2022/02/26 01:58:30;;;;;;;1.50;0.70;;;;;;;;;;2067689;28;20080;-68
2022/02/26 01:59:49;;;;;;;3.17;0.90;;;;;;;;;;2067832;28;20546;-69
2022/02/26 02:01:08;;;;;;;3.55;0.50;;;;;;;;;;2067480;28;20520;-64
2022/02/26 02:02:27;;;;;;;0.63;0.43;;;;;;;;;;2067558;28;20628;-66
2022/02/26 02:03:45;;;;;;;0.90;0.50;;;;;;;;;;2066370;28;20050;-67
2022/02/26 02:05:05;;;;;;;2.08;0.40;;;;;;;;;;2064475;28;20058;-67
2022/02/26 02:06:25;;;;;;;3.08;0.63;;;;;;;;;;2067724;28;20058;-67
2022/02/26 02:07:44;;;;;;;1.38;0.50;;;;;;;;;;2066483;28;20066;-67
2022/02/26 02:09:03;;;;;;;4.05;0.90;;;;;;;;;;2066816;28;20030;-67
2022/02/26 02:10:22;;;;;;;4.13;0.60;;;;;;;;;;2068968;28;20037;-67
2022/02/26 02:11:41;;;;;;;5.88;1.05;;;;;;;;;;2068001;28;20042;-67
2022/02/26 02:13:00;;;;;;;1.33;0.77;;;;;;;;;;2066081;28;20105;-67
2022/02/26 02:14:19;;;;;;;1.50;0.70;;;;;;;;;;2067054;28;20043;-67
2022/02/26 02:15:40;;;;;;;4.90;0.80;;;;;;;;;;2067658;28;20034;-67
2022/02/26 02:16:58;;;;;;;8.63;1.05;;;;;;;;;;2067969;28;20026;-67
2022/02/26 02:18:17;;;;;;;4.28;0.65;;;;;;;;;;2066914;28;20037;-67
2022/02/26 02:19:36;;;;;;;3.10;1.02;;;;;;;;;;2066111;28;20030;-68
2022/02/26 02:20:57;;;;;;;3.95;0.80;;;;;;;;;;2065269;28;20038;-67
2022/02/26 02:22:17;;;;;;;0.75;0.47;;;;;;;;;;2066437;28;20046;-67
2022/02/26 02:23:36;;;;;;;2.80;0.90;;;;;;;;;;2066074;28;20105;-67
2022/02/26 02:24:55;;;;;;;2.67;0.73;;;;;;;;;;2065627;28;20022;-67
2022/02/26 02:26:16;;;;;;;0.85;0.40;;;;;;;;;;2066079;28;20030;-67
2022/02/26 02:27:35;;;;;;;1.63;0.70;;;;;;;;;;2066064;28;20038;-67
2022/02/26 02:28:54;;;;;;;3.15;0.60;;;;;;;;;;2067716;28;20039;-67
2022/02/26 02:30:13;;;;;;;5.38;1.00;;;;;;;;;;2067594;28;20038;-67
2022/02/26 02:31:32;;;;;;;2.40;1.25;;;;;;;;;;2066959;28;20046;-67
2022/02/26 02:32:53;;;;;;;3.10;0.93;;;;;;;;;;2062495;28;20046;-66
2022/02/26 02:34:12;;;;;;;4.57;0.77;;;;;;;;;;2066503;28;20496;-66
2022/02/26 02:35:32;;;;;;;0.85;0.52;;;;;;;;;;2066414;28;20273;-67
2022/02/26 02:36:51;;;;;;;3.00;0.70;;;;;;;;;;2067399;28;20101;-67
2022/02/26 02:38:12;;;;;;;2.10;1.05;;;;;;;;;;2067117;28;20078;-66
2022/02/26 02:39:31;;;;;;;1.98;0.65;;;;;;;;;;2067635;28;20031;-67
2022/02/26 02:40:50;;;;;;;1.25;0.73;;;;;;;;;;2067191;28;20019;-67
2022/02/26 02:42:09;;;;;;;1.50;0.52;;;;;;;;;;2066513;28;20038;-67
2022/02/26 02:43:28;;;;;;;2.55;0.77;;;;;;;;;;2065606;28;20031;-67
2022/02/26 02:44:47;;;;;;;4.00;0.88;;;;;;;;;;2066722;28;20026;-67
2022/02/26 02:46:06;;;;;;;1.73;0.77;;;;;;;;;;2066470;28;20125;-67
2022/02/26 02:47:25;;;;;;;0.98;0.77;;;;;;;;;;2065958;28;20483;-67
2022/02/26 02:48:44;;;;;;;2.60;0.98;;;;;;;;;;2067264;28;20396;-67
2022/02/26 02:50:03;;;;;;;5.72;0.65;;;;;;;;;;2066924;28;20038;-67
2022/02/26 02:51:22;;;;;;;5.68;1.00;;;;;;;;;;2066944;28;20042;-67
2022/02/26 02:52:41;;;;;;;2.00;0.43;;;;;;;;;;2066984;28;20030;-66
2022/02/26 02:54:00;;;;;;;2.40;1.00;;;;;;;;;;2064494;28;20030;-67
2022/02/26 02:55:21;;;;;;;1.33;0.40;;;;;;;;;;2065939;28;20034;-65
2022/02/26 02:56:40;;;;;;;6.15;0.82;;;;;;;;;;2066476;28;20026;-66
2022/02/26 02:57:59;;;;;;;6.10;0.93;;;;;;;;;;2066899;28;20030;-67
2022/02/26 02:59:18;;;;;;;2.28;0.73;;;;;;;;;;2067568;28;20030;-67
2022/02/26 03:00:38;;;;;;;3.88;0.80;;;;;;;;;;2067593;28;20042;-66
2022/02/26 03:01:57;;;;;;;4.88;0.73;;;;;;;;;;2064881;28;20026;-66
2022/02/26 03:03:16;;;;;;;4.88;0.70;;;;;;;;;;2067569;28;20034;-67
2022/02/26 03:04:35;;;;;;;4.18;0.60;;;;;;;;;;2066601;28;20038;-67
2022/02/26 03:05:54;;;;;;;1.05;0.60;;;;;;;;;;2066573;28;20571;-67
2022/02/26 03:07:13;;;;;;;3.30;1.10;;;;;;;;;;2065941;28;20404;-67
2022/02/26 03:08:32;;;;;;;5.90;0.82;;;;;;;;;;2067348;28;20039;-67
2022/02/26 03:09:51;;;;;;;2.58;0.80;;;;;;;;;;2069802;28;20038;-67
2022/02/26 03:11:09;;;;;;;1.23;0.50;;;;;;;;;;2067013;28;20113;-66
2022/02/26 03:12:28;;;;;;;6.25;0.90;;;;;;;;;;2065914;28;20038;-67
2022/02/26 03:13:47;;;;;;;1.08;0.40;;;;;;;;;;2066632;28;20038;-67
2022/02/26 03:15:07;;;;;;;2.58;0.57;;;;;;;;;;2065558;28;20022;-68
2022/02/26 03:16:26;;;;;;;3.50;0.70;;;;;;;;;;2064023;28;20094;-68
2022/02/26 03:17:45;;;;;;;6.25;0.75;;;;;;;;;;2066211;28;20500;-67
2022/02/26 03:19:04;;;;;;;1.52;0.70;;;;;;;;;;2063571;28;20504;-67
2022/02/26 03:20:23;;;;;;;2.70;0.50;;;;;;;;;;2067665;28;20401;-68
2022/02/26 03:21:42;;;;;;;2.25;0.85;;;;;;;;;;2066657;28;20125;-67
2022/02/26 03:23:01;;;;;;;2.28;0.65;;;;;;;;;;2066913;28;20030;-67
2022/02/26 03:24:20;;;;;;;3.10;0.80;;;;;;;;;;2065622;28;20030;-66
2022/02/26 03:25:39;;;;;;;1.30;1.00;;;;;;;;;;2066174;28;20467;-67
2022/02/26 03:26:58;;;;;;;2.60;0.82;;;;;;;;;;2065964;28;20058;-67
2022/02/26 03:28:17;;;;;;;1.65;0.60;;;;;;;;;;2067018;28;20042;-67
2022/02/26 03:29:36;;;;;;;3.78;0.50;;;;;;;;;;2067377;28;20034;-67
2022/02/26 03:30:55;;;;;;;5.68;0.95;;;;;;;;;;2066949;28;20030;-67
2022/02/26 03:32:14;;;;;;;2.22;0.40;;;;;;;;;;2066598;28;20026;-67
2022/02/26 03:33:33;;;;;;;1.20;0.30;;;;;;;;;;2066329;28;20039;-67
2022/02/26 03:34:52;;;;;;;3.70;0.70;;;;;;;;;;2065104;28;20065;-66
2022/02/26 03:36:10;;;;;;;2.53;0.60;;;;;;;;;;2065387;28;20030;-67
2022/02/26 03:37:31;;;;;;;1.42;0.80;;;;;;;;;;2065055;28;20408;-67
2022/02/26 03:38:50;;;;;;;2.70;0.65;;;;;;;;;;2066916;28;20035;-67
2022/02/26 03:40:09;;;;;;;0.90;0.43;;;;;;;;;;2067326;28;20026;-67
2022/02/26 03:41:28;;;;;;;2.30;0.52;;;;;;;;;;2067594;28;20026;-67
2022/02/26 03:42:48;;;;;;;5.55;0.88;;;;;;;;;;2065609;28;20035;-68
2022/02/26 03:44:08;;;;;;;4.38;0.57;;;;;;;;;;2067227;28;20476;-67
2022/02/26 03:45:27;;;;;;;0.88;0.88;;;;;;;;;;2067161;28;20022;-67
2022/02/26 03:46:46;;;;;;;2.13;0.77;;;;;;;;;;2066344;28;20030;-67
2022/02/26 03:48:05;;;;;;;1.92;0.73;;;;;;;;;;2066617;28;20388;-68
2022/02/26 03:49:24;;;;;;;3.08;0.82;;;;;;;;;;2066391;28;20065;-67
2022/02/26 03:50:43;;;;;;;1.85;0.60;;;;;;;;;;2066616;28;20035;-67
2022/02/26 03:52:02;;;;;;;1.52;0.77;;;;;;;;;;2067014;28;20412;-67
2022/02/26 03:53:21;;;;;;;1.77;0.50;;;;;;;;;;2065966;28;20050;-69
2022/02/26 03:54:40;;;;;;;2.40;0.73;;;;;;;;;;2067481;28;20109;-67
2022/02/26 03:55:59;;;;;;;1.20;0.70;;;;;;;;;;2066817;28;20479;-67
2022/02/26 03:57:18;;;;;;;4.72;0.90;;;;;;;;;;2068205;28;20030;-67
2022/02/26 03:58:37;;;;;;;2.72;0.68;;;;;;;;;;2068384;28;20042;-67
2022/02/26 03:59:56;;;;;;;0.73;0.73;;;;;;;;;;2067550;28;20461;-67
2022/02/26 04:01:15;;;;;;;4.20;0.80;;;;;;;;;;2068189;28;20038;-67
2022/02/26 04:02:34;;;;;;;4.63;1.17;;;;;;;;;;2065735;28;20031;-66
2022/02/26 04:03:53;;;;;;;4.22;1.00;;;;;;;;;;2068086;28;20396;-67
2022/02/26 04:05:12;;;;;;;2.15;0.50;;;;;;;;;;2067129;28;20168;-66
2022/02/26 04:06:31;;;;;;;3.08;0.60;;;;;;;;;;2068431;28;20035;-67
2022/02/26 04:07:50;;;;;;;3.08;0.68;;;;;;;;;;2068578;28;20064;-67
2022/02/26 04:09:11;;;;;;;2.58;0.95;;;;;;;;;;2068395;28;20065;-67
2022/02/26 04:10:30;;;;;;;3.35;0.50;;;;;;;;;;2068156;28;20038;-67
2022/02/26 04:11:49;;;;;;;0.90;0.50;;;;;;;;;;2068750;28;20042;-67
2022/02/26 04:13:07;;;;;;;2.53;0.55;;;;;;;;;;2068799;28;20073;-65
2022/02/26 04:14:26;;;;;;;0.75;0.40;;;;;;;;;;2067559;28;20026;-66
2022/02/26 04:15:45;;;;;;;1.67;0.70;;;;;;;;;;2068525;28;20459;-67
2022/02/26 04:17:04;;;;;;;3.50;1.00;;;;;;;;;;2068201;28;20030;-66
2022/02/26 04:18:23;;;;;;;3.45;0.80;;;;;;;;;;2067697;28;20061;-67
2022/02/26 04:19:42;;;;;;;2.10;0.80;;;;;;;;;;2067200;28;20066;-67
2022/02/26 04:21:01;;;;;;;3.10;1.20;;;;;;;;;;2066498;28;20077;-67
2022/02/26 04:22:20;;;;;;;2.65;0.90;;;;;;;;;;2068240;28;20113;-67
2022/02/26 04:23:39;;;;;;;2.25;0.88;;;;;;;;;;2067611;28;20504;-67
2022/02/26 04:24:58;;;;;;;2.17;0.68;;;;;;;;;;2067587;28;20046;-67
2022/02/26 04:26:17;;;;;;;2.00;0.60;;;;;;;;;;2067464;28;20026;-67
2022/02/26 04:27:38;;;;;;;1.80;0.75;;;;;;;;;;2068189;28;20109;-66
2022/02/26 04:28:57;;;;;;;3.47;0.95;;;;;;;;;;2067871;28;20449;-67
2022/02/26 04:30:16;;;;;;;8.02;1.10;;;;;;;;;;2067141;28;20034;-67
2022/02/26 04:31:35;;;;;;;4.05;1.00;;;;;;;;;;2071958;28;20504;-66
2022/02/26 04:32:54;;;;;;;4.38;0.90;;;;;;;;;;2066417;28;20066;-67
2022/02/26 04:34:13;;;;;;;2.00;0.77;;;;;;;;;;2067438;28;20402;-66
2022/02/26 04:35:32;;;;;;;2.88;1.05;;;;;;;;;;2068183;28;20023;-66
2022/02/26 04:36:51;;;;;;;2.15;0.73;;;;;;;;;;2068500;28;20492;-67
2022/02/26 04:38:10;;;;;;;2.33;0.80;;;;;;;;;;2067958;28;20504;-67
2022/02/26 04:39:28;;;;;;;2.83;0.82;;;;;;;;;;2067799;28;20058;-66
2022/02/26 04:40:47;;;;;;;0.95;0.75;;;;;;;;;;2067785;28;20035;-67
2022/02/26 04:42:06;;;;;;;4.40;1.00;;;;;;;;;;2067642;28;20038;-67
2022/02/26 04:43:25;;;;;;;3.75;1.02;;;;;;;;;;2066486;28;20400;-67
2022/02/26 04:44:44;;;;;;;3.47;0.60;;;;;;;;;;2067785;28;20508;-66
2022/02/26 04:46:03;;;;;;;2.85;0.80;;;;;;;;;;2066841;28;20042;-67
2022/02/26 04:47:22;;;;;;;5.47;0.80;;;;;;;;;;2067494;28;20038;-67
2022/02/26 04:48:41;;;;;;;4.00;0.75;;;;;;;;;;2067526;28;20035;-68
2022/02/26 04:50:00;;;;;;;2.85;1.00;;;;;;;;;;2068704;28;20112;-68
2022/02/26 04:51:20;;;;;;;2.70;0.82;;;;;;;;;;2069724;28;20041;-67
2022/02/26 04:52:39;;;;;;;4.93;0.77;;;;;;;;;;2067568;28;20046;-67
2022/02/26 04:53:58;;;;;;;7.15;1.05;;;;;;;;;;2067220;28;20276;-67
2022/02/26 04:55:17;;;;;;;3.97;1.00;;;;;;;;;;2067384;28;20030;-66
2022/02/26 04:56:36;;;;;;;4.63;0.63;;;;;;;;;;2068403;28;20038;-67
2022/02/26 04:57:55;;;;;;;2.10;0.90;;;;;;;;;;2067604;28;20026;-67
2022/02/26 04:59:13;;;;;;;1.85;0.60;;;;;;;;;;2067597;28;20027;-66
2022/02/26 05:00:32;;;;;;;2.47;0.65;;;;;;;;;;2066511;28;20046;-67
2022/02/26 05:01:51;;;;;;;4.07;0.90;;;;;;;;;;2067465;28;20030;-66
2022/02/26 05:03:10;;;;;;;6.15;0.85;;;;;;;;;;2066826;28;20030;-67
2022/02/26 05:04:29;;;;;;;2.22;0.68;;;;;;;;;;2067279;28;20050;-67
2022/02/26 05:05:48;;;;;;;4.78;0.80;;;;;;;;;;2066705;28;20484;-67
2022/02/26 05:07:07;;;;;;;7.97;0.95;;;;;;;;;;2067340;28;20034;-67
2022/02/26 05:08:26;;;;;;;3.30;0.80;;;;;;;;;;2066927;28;20026;-67
2022/02/26 05:09:45;;;;;;;3.13;0.75;;;;;;;;;;2068152;28;20411;-67
2022/02/26 05:11:04;;;;;;;4.93;0.90;;;;;;;;;;2067946;28;20030;-66
2022/02/26 05:12:23;;;;;;;5.68;1.05;;;;;;;;;;2068068;28;20069;-68
2022/02/26 05:13:42;;;;;;;4.60;1.00;;;;;;;;;;2067094;28;20126;-70
2022/02/26 05:15:02;;;;;;;5.63;1.08;;;;;;;;;;2065485;28;20027;-69
2022/02/26 05:16:21;;;;;;;5.15;1.00;;;;;;;;;;2067218;28;20027;-71
2022/02/26 05:17:41;;;;;;;1.92;0.88;;;;;;;;;;2067495;28;20472;-69
2022/02/26 05:18:59;;;;;;;1.17;0.80;;;;;;;;;;2067407;28;20035;-70
2022/02/26 05:20:18;;;;;;;7.93;1.10;;;;;;;;;;2067928;28;20449;-70
2022/02/26 05:21:37;;;;;;;6.13;0.85;;;;;;;;;;2067907;28;20034;-70
2022/02/26 05:22:56;;;;;;;6.25;1.13;;;;;;;;;;2066331;28;20575;-70
2022/02/26 05:24:16;;;;;;;4.78;1.17;;;;;;;;;;2067373;28;20038;-70
2022/02/26 05:25:34;;;;;;;3.90;0.68;;;;;;;;;;2067030;28;20038;-70
2022/02/26 05:26:53;;;;;;;2.00;0.70;;;;;;;;;;2066580;28;20125;-70
2022/02/26 05:28:12;;;;;;;3.15;1.05;;;;;;;;;;2068196;28;20034;-70
2022/02/26 05:29:31;;;;;;;5.95;1.10;;;;;;;;;;2067010;28;20030;-71
2022/02/26 05:30:50;;;;;;;2.83;0.57;;;;;;;;;;2067498;28;20038;-71
2022/02/26 05:32:09;;;;;;;3.45;0.80;;;;;;;;;;2066716;28;20463;-70
2022/02/26 05:33:28;;;;;;;1.83;1.10;;;;;;;;;;2066646;28;20034;-70
2022/02/26 05:34:51;;;;;;;2.38;1.02;;;;;;;;;;2064109;28;20054;-70
2022/02/26 05:36:10;;;;;;;2.17;0.70;;;;;;;;;;2066092;28;20022;-70
2022/02/26 05:37:29;;;;;;;2.70;0.95;;;;;;;;;;2067191;28;20034;-70
2022/02/26 05:38:48;;;;;;;2.08;0.80;;;;;;;;;;2066306;28;20018;-71
2022/02/26 05:40:07;;;;;;;6.53;1.45;;;;;;;;;;2066172;28;20038;-70
2022/02/26 05:41:26;;;;;;;4.88;1.15;;;;;;;;;;2067839;28;20031;-69
2022/02/26 05:42:44;;;;;;;6.72;1.20;;;;;;;;;;2066606;28;20027;-70
2022/02/26 05:44:03;;;;;;;8.32;1.15;;;;;;;;;;2065117;28;20034;-70
2022/02/26 05:45:22;;;;;;;4.35;1.42;;;;;;;;;;2065339;28;20113;-70
2022/02/26 05:46:41;;;;;;;3.60;1.10;;;;;;;;;;2065791;28;20026;-70
2022/02/26 05:48:00;;;;;;;4.05;1.00;;;;;;;;;;2069276;28;20038;-70
2022/02/26 05:49:20;;;;;;;5.15;1.33;;;;;;;;;;2066396;28;20105;-71
2022/02/26 05:50:39;;;;;;;8.68;0.90;;;;;;;;;;2066592;28;20026;-70
2022/02/26 05:51:58;;;;;;;1.58;0.88;;;;;;;;;;2067410;28;20473;-70
2022/02/26 05:53:17;;;;;;;3.50;1.00;;;;;;;;;;2066144;28;20412;-70
2022/02/26 05:54:36;;;;;;;1.10;0.60;;;;;;;;;;2067079;28;20547;-70
2022/02/26 05:55:55;;;;;;;5.15;0.82;;;;;;;;;;2065484;28;20093;-69
2022/02/26 05:57:14;;;;;;;3.00;1.10;;;;;;;;;;2062533;28;20062;-69
2022/02/26 05:58:33;;;;;;;4.68;0.90;;;;;;;;;;2064715;28;20037;-70
2022/02/26 05:59:52;;;;;;;3.97;0.90;;;;;;;;;;2067057;28;20556;-69
2022/02/26 06:01:11;;;;;;;2.97;1.25;;;;;;;;;;2067082;28;20030;-70
2022/02/26 06:02:30;;;;;;;3.30;0.90;;;;;;;;;;2065941;28;20026;-69
2022/02/26 06:03:48;;;;;;;4.00;0.80;;;;;;;;;;2066913;28;20033;-68
2022/02/26 06:05:08;;;;;;;3.78;0.90;;;;;;;;;;2064724;28;20456;-67
2022/02/26 06:06:27;;;;;;;3.15;1.00;;;;;;;;;;2067131;28;20038;-70
2022/02/26 06:07:46;;;;;;;7.45;1.73;;;;;;;;;;2067137;28;20030;-70
2022/02/26 06:09:05;;;;;;;3.50;1.45;;;;;;;;;;2067732;28;20062;-68
2022/02/26 06:10:24;;;;;;;2.38;0.80;;;;;;;;;;2064182;28;20524;-69
2022/02/26 06:11:43;;;;;;;2.38;0.85;;;;;;;;;;2066079;28;20034;-69
2022/02/26 06:13:02;;;;;;;1.88;0.77;;;;;;;;;;2066674;28;20026;-69
2022/02/26 06:14:21;;;;;;;2.95;0.70;;;;;;;;;;2066336;28;20479;-69
2022/02/26 06:15:40;;;;;;;4.53;0.95;;;;;;;;;;2068209;28;20030;-69
2022/02/26 06:16:59;;;;;;;6.68;0.90;;;;;;;;;;2067198;28;20106;-71
2022/02/26 06:18:18;;;;;;;3.15;0.90;;;;;;;;;;2067916;28;20122;-69
2022/02/26 06:19:37;;;;;;;4.32;1.20;;;;;;;;;;2068046;28;20026;-68
2022/02/26 06:20:56;;;;;;;5.28;0.82;;;;;;;;;;2066617;28;20022;-70
2022/02/26 06:22:15;;;;;;;5.80;1.10;;;;;;;;;;2067791;28;20022;-70
2022/02/26 06:23:34;;;;;;;3.40;1.05;;;;;;;;;;2066972;28;20038;-71
2022/02/26 06:24:53;;;;;;;2.95;0.63;;;;;;;;;;2066107;28;20384;-70
2022/02/26 06:26:12;;;;;;;2.38;0.95;;;;;;;;;;2067523;28;20113;-70
2022/02/26 06:27:34;;;;;;;4.95;1.10;;;;;;;;;;2066575;28;20042;-70
2022/02/26 06:28:55;;;;;;;3.15;1.10;;;;;;;;;;2065428;28;20076;-70
2022/02/26 06:30:14;;;;;;;5.75;1.05;;;;;;;;;;2064147;28;20157;-70
2022/02/26 06:31:33;;;;;;;2.75;0.93;;;;;;;;;;2067493;28;20041;-70
2022/02/26 06:32:52;;;;;;;3.60;0.80;;;;;;;;;;2066585;28;20030;-69
2022/02/26 06:34:11;;;;;;;3.67;1.30;;;;;;;;;;2066558;28;20035;-71
2022/02/26 06:35:30;;;;;;;3.05;0.80;;;;;;;;;;2067746;28;20034;-71
2022/02/26 06:36:49;;;;;;;1.20;0.65;;;;;;;;;;2064981;28;20396;-70
2022/02/26 06:38:09;;;;;;;3.60;1.05;;;;;;;;;;2064612;28;20039;-70
2022/02/26 06:39:27;;;;;;;3.65;0.73;;;;;;;;;;2066836;28;20027;-70
2022/02/26 06:40:47;;;;;;;4.38;1.10;;;;;;;;;;2065722;28;20030;-69
2022/02/26 06:42:05;;;;;;;6.63;1.10;;;;;;;;;;2063374;28;20048;-69
2022/02/26 06:43:24;;;;;;;3.20;1.00;;;;;;;;;;2066588;28;20035;-69
2022/02/26 06:44:43;;;;;;;2.70;1.08;;;;;;;;;;2065062;28;20025;-69
2022/02/26 06:46:02;;;;;;;3.03;1.02;;;;;;;;;;2067131;28;20042;-69
2022/02/26 06:47:21;;;;;;;2.28;1.10;;;;;;;;;;2067179;28;20038;-69
2022/02/26 06:48:40;;;;;;;6.45;1.60;;;;;;;;;;2066790;28;20430;-69
2022/02/26 06:49:59;;;;;;;3.30;0.77;;;;;;;;;;2066887;28;20038;-68
2022/02/26 06:51:18;;;;;;;2.10;1.17;;;;;;;;;;2066065;28;20042;-69
2022/02/26 06:52:37;;;;;;;4.75;1.13;;;;;;;;;;2064547;28;20113;-69
2022/02/26 06:53:56;;;;;;;2.25;1.17;;;;;;;;;;2066269;28;20031;-68
2022/02/26 06:55:15;;;;;;;4.93;1.00;;;;;;;;;;2066058;28;20030;-69
2022/02/26 06:56:34;;;;;;;6.10;1.45;;;;;;;;;;2066098;28;20500;-69
2022/02/26 06:57:53;;;;;;;3.95;1.20;;;;;;;;;;2065034;28;20030;-69
2022/02/26 06:59:12;;;;;;;5.00;0.95;;;;;;;;;;2065745;28;20029;-70
2022/02/26 07:00:31;;;;;;;5.70;1.30;;;;;;;;;;2065215;28;20026;-69
2022/02/26 07:01:50;;;;;;;1.98;0.90;;;;;;;;;;2065623;28;20519;-69
2022/02/26 07:03:08;;;;;;;3.42;1.55;;;;;;;;;;2066028;28;20066;-69
2022/02/26 07:04:29;;;;;;;2.67;1.05;;;;;;;;;;2067846;28;20038;-69
2022/02/26 07:05:48;;;;;;;6.28;0.90;;;;;;;;;;2066647;28;20035;-70
2022/02/26 07:07:07;;;;;;;4.32;0.70;;;;;;;;;;2066191;28;20031;-69
2022/02/26 07:08:26;;;;;;;10.13;1.50;;;;;;;;;;2067714;28;20034;-70
2022/02/26 07:09:47;;;;;;;4.25;1.20;;;;;;;;;;2067316;28;20109;-70
2022/02/26 07:11:06;;;;;;;4.88;1.30;;;;;;;;;;2072048;28;20125;-70
2022/02/26 07:12:25;;;;;;;4.57;1.00;;;;;;;;;;2069126;28;20477;-70
2022/02/26 07:13:44;;;;;;;5.47;1.20;;;;;;;;;;2066616;28;20030;-69
2022/02/26 07:15:02;;;;;;;7.15;1.15;;;;;;;;;;2065253;28;20097;-69
2022/02/26 07:16:21;;;;;;;4.75;1.20;;;;;;;;;;2065450;28;20034;-69
2022/02/26 07:17:41;;;;;;;2.15;0.82;;;;;;;;;;2066708;28;20469;-70
2022/02/26 07:19:03;;;;;;;3.10;0.98;;;;;;;;;;2067666;28;20018;-70
2022/02/26 07:20:22;;;;;;;4.20;0.80;;;;;;;;;;2066674;28;20026;-69
2022/02/26 07:21:40;;;;;;;5.90;1.10;;;;;;;;;;2064978;28;20504;-69
2022/02/26 07:22:59;;;;;;;4.72;0.95;;;;;;;;;;2067168;28;20030;-70
2022/02/26 07:24:18;;;;;;;4.78;1.00;;;;;;;;;;2067829;28;20062;-69
2022/02/26 07:25:37;;;;;;;6.10;1.05;;;;;;;;;;2067115;28;20034;-69
2022/02/26 07:26:56;;;;;;;5.57;1.85;;;;;;;;;;2066460;28;20403;-70
2022/02/26 07:28:15;;;;;;;5.82;1.48;;;;;;;;;;2059716;28;20029;-69
2022/02/26 07:29:33;;;;;;;3.80;1.15;;;;;;;;;;2067968;28;20412;-69
2022/02/26 07:30:53;;;;;;;4.47;1.17;;;;;;;;;;2064667;28;20030;-70
2022/02/26 07:32:12;;;;;;;3.40;0.90;;;;;;;;;;2105618;28;20138;-69
2022/02/26 07:33:31;;;;;;;2.85;1.23;;;;;;;;;;2082721;28;20408;-69
2022/02/26 07:34:50;;;;;;;4.22;0.90;;;;;;;;;;2068930;28;20488;-69
2022/02/26 07:36:09;;;;;;;4.75;0.95;;;;;;;;;;2067082;28;20479;-69
2022/02/26 07:37:28;;;;;;;2.45;0.70;;;;;;;;;;2068410;28;20018;-69
2022/02/26 07:38:46;;;;;;;3.22;0.90;;;;;;;;;;2067460;28;20034;-69
2022/02/26 07:40:06;;;;;;;4.07;1.00;;;;;;;;;;2066961;28;20037;-69
2022/02/26 07:41:25;;;;;;;2.97;0.90;;;;;;;;;;2067667;28;20109;-68
2022/02/26 07:42:44;;;;;;;6.25;1.27;;;;;;;;;;2068327;28;20106;-69
2022/02/26 07:44:03;;;;;;;5.25;1.52;;;;;;;;;;2070292;28;20035;-69
2022/02/26 07:45:22;;;;;;;5.07;0.80;;;;;;;;;;2067773;28;20462;-69
2022/02/26 07:46:40;;;;;;;7.82;1.15;;;;;;;;;;2066591;28;20026;-71
2022/02/26 07:47:59;;;;;;;5.55;0.80;;;;;;;;;;2068470;28;20117;-70
2022/02/26 07:49:18;;;;;;;6.10;1.50;;;;;;;;;;2067694;28;20033;-70
2022/02/26 07:50:37;;;;;;;3.95;0.95;;;;;;;;;;2066566;28;20496;-70
2022/02/26 07:51:56;;;;;;;3.97;1.00;;;;;;;;;;2066164;28;20038;-70
2022/02/26 07:53:15;;;;;;;4.53;1.10;;;;;;;;;;2067976;28;20034;-70
2022/02/26 07:54:34;;;;;;;2.00;0.80;;;;;;;;;;2068006;28;20023;-70